Time;durP1;ratioP1;P1;durP2;ratioP2;P2;SDS_P1;SDS_P2;PMS_P1;PMS_P2;Temp;Humidity;BMP_temperature;BMP_pressure;BME280_temperature;BME280_humidity;BME280_pressure;Samples;Min_cycle;Max_cycle;Signal;HPM_P1;HPM_P2
2022/03/07 00:01:04;;;;;;;4.90;4.10;;;0.20;99.90;;;;;;4998160;28;20216;-79
2022/03/07 00:03:29;;;;;;;5.63;4.17;;;0.20;99.90;;;;;;4998044;28;20191;-78
2022/03/07 00:05:55;;;;;;;6.47;4.53;;;0.20;99.90;;;;;;5012509;28;20689;-77
2022/03/07 00:08:22;;;;;;;4.63;4.00;;;0.20;99.90;;;;;;4998436;28;20254;-80
2022/03/07 00:10:47;;;;;;;4.57;3.80;;;0.30;99.90;;;;;;4995785;28;20235;-77
2022/03/07 00:13:13;;;;;;;5.60;4.10;;;0.30;99.90;;;;;;4998387;28;20674;-78
2022/03/07 00:15:39;;;;;;;5.23;4.10;;;0.20;99.90;;;;;;4996259;28;20223;-78
2022/03/07 00:18:04;;;;;;;4.40;4.03;;;0.20;99.90;;;;;;4999569;28;20766;-78
2022/03/07 00:20:30;;;;;;;5.80;4.43;;;0.20;99.90;;;;;;4998347;28;20247;-78
2022/03/07 00:22:56;;;;;;;6.13;4.20;;;0.20;99.90;;;;;;4998506;28;20187;-78
2022/03/07 00:25:21;;;;;;;5.60;4.27;;;0.20;99.90;;;;;;5013522;28;20223;-80
2022/03/07 00:27:47;;;;;;;5.10;3.87;;;0.20;99.90;;;;;;4998621;28;20298;-78
2022/03/07 00:30:15;;;;;;;3.90;3.60;;;0.20;99.90;;;;;;4998440;28;20192;-78
2022/03/07 00:32:41;;;;;;;4.70;3.87;;;0.20;99.90;;;;;;4995633;28;20702;-77
2022/03/07 00:35:08;;;;;;;4.73;4.30;;;0.20;99.90;;;;;;4998084;28;20207;-79
2022/03/07 00:37:33;;;;;;;4.47;4.00;;;0.20;99.90;;;;;;4998770;28;20659;-79
2022/03/07 00:39:59;;;;;;;4.27;3.70;;;0.30;99.90;;;;;;4996059;28;20222;-78
2022/03/07 00:42:24;;;;;;;4.60;3.93;;;0.20;99.90;;;;;;5013040;28;20200;-78
2022/03/07 00:44:50;;;;;;;6.17;4.50;;;0.20;99.90;;;;;;5011844;28;20643;-80
2022/03/07 00:47:15;;;;;;;6.20;4.60;;;0.30;99.90;;;;;;4996548;28;20180;-79
2022/03/07 00:49:41;;;;;;;4.27;3.70;;;0.30;99.90;;;;;;4997520;28;20249;-78
2022/03/07 00:52:07;;;;;;;5.63;4.43;;;0.30;99.90;;;;;;4997221;28;20208;-80
2022/03/07 00:54:32;;;;;;;6.50;5.20;;;0.30;99.90;;;;;;4997505;28;20227;-80
2022/03/07 00:56:58;;;;;;;5.83;4.53;;;0.40;99.90;;;;;;4998083;28;20643;-78
2022/03/07 00:59:23;;;;;;;4.73;4.20;;;0.40;99.90;;;;;;4998287;28;20275;-79
2022/03/07 01:01:49;;;;;;;4.70;4.23;;;0.40;99.90;;;;;;4997899;28;20214;-79
2022/03/07 01:04:14;;;;;;;5.50;4.53;;;0.40;99.90;;;;;;5011085;28;20186;-79
2022/03/07 01:06:40;;;;;;;4.47;4.00;;;0.40;99.90;;;;;;4997342;28;20721;-79
2022/03/07 01:09:05;;;;;;;5.60;4.50;;;0.30;99.90;;;;;;4998643;28;20267;-79
2022/03/07 01:11:31;;;;;;;5.77;4.50;;;0.30;99.90;;;;;;4996788;28;20282;-79
2022/03/07 01:13:57;;;;;;;7.50;4.40;;;0.30;99.90;;;;;;4997308;28;20184;-78
2022/03/07 01:16:22;;;;;;;5.63;4.83;;;0.30;99.90;;;;;;4996978;28;20195;-80
2022/03/07 01:18:48;;;;;;;5.07;4.60;;;0.30;99.90;;;;;;4998779;28;20196;-79
2022/03/07 01:21:13;;;;;;;5.40;4.90;;;0.30;99.90;;;;;;4996338;28;20294;-79
2022/03/07 01:23:39;;;;;;;6.10;4.83;;;0.30;99.90;;;;;;5011791;28;20210;-80
2022/03/07 01:26:05;;;;;;;6.07;4.60;;;0.40;99.90;;;;;;5012910;28;20244;-80
2022/03/07 01:28:30;;;;;;;7.80;5.00;;;0.40;99.90;;;;;;5014866;28;20179;-78
2022/03/07 01:30:56;;;;;;;6.00;5.10;;;0.30;99.90;;;;;;4997694;28;20208;-80
2022/03/07 01:33:21;;;;;;;5.70;4.70;;;0.30;99.90;;;;;;4995809;28;20580;-80
2022/03/07 01:35:47;;;;;;;7.90;4.37;;;0.30;99.90;;;;;;4997225;28;20198;-78
2022/03/07 01:38:12;;;;;;;6.63;4.67;;;0.30;99.90;;;;;;4998741;28;20592;-78
2022/03/07 01:40:40;;;;;;;6.20;4.57;;;0.30;99.90;;;;;;4998448;28;20210;-79
2022/03/07 01:43:06;;;;;;;5.43;4.70;;;0.30;99.90;;;;;;5012173;28;20176;-78
2022/03/07 01:45:31;;;;;;;6.80;4.83;;;0.30;99.90;;;;;;5011222;28;20183;-79
2022/03/07 01:47:57;;;;;;;5.20;4.43;;;0.30;99.90;;;;;;4998185;28;20180;-78
2022/03/07 01:50:22;;;;;;;6.13;5.13;;;0.30;99.90;;;;;;4997862;28;20183;-78
2022/03/07 01:52:52;;;;;;;7.43;5.10;;;0.30;99.90;;;;;;4998107;28;21136;-78
2022/03/07 01:55:18;;;;;;;6.33;5.43;;;0.30;99.90;;;;;;4996772;28;20190;-78
2022/03/07 01:57:45;;;;;;;5.90;4.80;;;0.40;99.90;;;;;;4999041;28;20242;-79
2022/03/07 02:00:15;;;;;;;7.07;5.47;;;0.30;99.90;;;;;;4997315;28;20533;-80
2022/03/07 02:02:42;;;;;;;5.80;4.50;;;0.40;99.90;;;;;;4997681;28;20628;-80
2022/03/07 02:05:10;;;;;;;6.60;4.93;;;0.40;99.90;;;;;;4997259;28;20253;-80
2022/03/07 02:07:36;;;;;;;7.07;5.30;;;0.40;99.90;;;;;;5002372;28;20221;-80
2022/03/07 02:10:04;;;;;;;5.47;4.67;;;0.30;99.90;;;;;;5000298;28;20560;-80
2022/03/07 02:12:30;;;;;;;6.10;4.67;;;0.50;99.90;;;;;;4998529;28;20211;-79
2022/03/07 02:14:56;;;;;;;6.43;4.60;;;0.40;99.90;;;;;;4997690;28;20188;-80
2022/03/07 02:17:22;;;;;;;5.93;4.53;;;0.30;99.90;;;;;;5016325;28;20183;-78
2022/03/07 02:19:47;;;;;;;5.53;4.93;;;0.40;99.90;;;;;;5000056;28;20677;-80
2022/03/07 02:22:15;;;;;;;5.23;4.37;;;0.40;99.90;;;;;;4999200;28;20204;-77
2022/03/07 02:24:41;;;;;;;5.73;4.57;;;0.40;99.90;;;;;;5008026;28;20212;-78
2022/03/07 02:27:09;;;;;;;4.93;4.20;;;0.40;99.90;;;;;;5001248;28;20198;-80
2022/03/07 02:29:35;;;;;;;4.90;4.40;;;0.50;99.90;;;;;;5000040;28;20184;-79
2022/03/07 02:32:02;;;;;;;5.33;4.33;;;0.40;99.90;;;;;;5001214;28;20212;-80
2022/03/07 02:34:28;;;;;;;5.30;4.30;;;0.40;99.90;;;;;;5000318;28;20188;-76
2022/03/07 02:36:53;;;;;;;4.90;4.10;;;0.30;99.90;;;;;;4999365;28;20200;-79
2022/03/07 02:39:19;;;;;;;5.97;4.67;;;0.30;99.90;;;;;;5000823;28;20551;-79
2022/03/07 02:41:45;;;;;;;5.37;4.17;;;0.40;99.90;;;;;;4998439;28;20272;-81
2022/03/07 02:44:11;;;;;;;5.37;4.37;;;0.30;99.90;;;;;;5015319;28;20211;-79
2022/03/07 02:46:37;;;;;;;5.97;4.60;;;0.30;99.90;;;;;;4999896;28;20818;-78
2022/03/07 02:49:05;;;;;;;6.83;4.47;;;0.30;99.90;;;;;;5000639;28;20188;-79
2022/03/07 02:51:31;;;;;;;4.80;4.30;;;0.30;99.90;;;;;;5000778;28;20200;-80
2022/03/07 02:53:57;;;;;;;4.37;3.97;;;0.20;99.90;;;;;;4998901;28;20184;-78
2022/03/07 02:56:23;;;;;;;4.73;4.27;;;0.20;99.90;;;;;;4999109;28;20184;-80
2022/03/07 02:58:48;;;;;;;6.53;4.63;;;0.20;99.90;;;;;;5000329;28;20206;-78
2022/03/07 03:01:14;;;;;;;5.40;4.40;;;0.20;99.90;;;;;;5000916;28;20291;-79
2022/03/07 03:03:40;;;;;;;6.87;4.97;;;0.20;99.90;;;;;;4997636;28;20241;-79
2022/03/07 03:06:05;;;;;;;6.10;4.73;;;0.20;99.90;;;;;;5015101;28;20196;-80
2022/03/07 03:08:31;;;;;;;6.73;5.00;;;0.20;99.90;;;;;;4999750;28;20180;-79
2022/03/07 03:10:57;;;;;;;6.70;5.20;;;0.20;99.90;;;;;;4997962;28;20717;-75
2022/03/07 03:13:24;;;;;;;7.77;5.60;;;0.20;99.90;;;;;;5013817;28;20181;-78
2022/03/07 03:15:51;;;;;;;6.20;4.43;;;0.20;99.90;;;;;;4997813;28;20193;-78
2022/03/07 03:18:17;;;;;;;5.83;4.90;;;0.20;99.90;;;;;;4995747;28;20270;-79
2022/03/07 03:20:45;;;;;;;5.40;4.90;;;0.20;99.90;;;;;;4997765;28;20223;-78
2022/03/07 03:23:11;;;;;;;4.83;4.33;;;0.20;99.90;;;;;;4998200;28;20677;-79
2022/03/07 03:25:37;;;;;;;5.00;4.50;;;0.20;99.90;;;;;;5005259;28;20204;-78
2022/03/07 03:28:04;;;;;;;6.60;4.63;;;0.20;99.90;;;;;;4997955;28;20224;-80
2022/03/07 03:30:30;;;;;;;5.50;4.70;;;0.10;99.90;;;;;;4997306;28;20559;-78
2022/03/07 03:32:55;;;;;;;5.80;4.73;;;0.10;99.90;;;;;;5012652;28;20188;-78
2022/03/07 03:35:21;;;;;;;5.73;5.13;;;0.10;99.90;;;;;;5014024;28;20188;-77
2022/03/07 03:37:47;;;;;;;6.97;4.90;;;0.10;99.90;;;;;;5013275;28;20188;-77
2022/03/07 03:40:12;;;;;;;7.43;5.07;;;0.00;99.90;;;;;;4997261;28;20216;-78
2022/03/07 03:42:39;;;;;;;7.43;5.17;;;0.00;99.90;;;;;;5013046;28;20211;-79
2022/03/07 03:45:06;;;;;;;5.70;4.70;;;0.10;99.90;;;;;;5000460;28;20192;-78
2022/03/07 03:47:35;;;;;;;7.30;5.43;;;0.20;99.90;;;;;;4998171;28;20188;-81
2022/03/07 03:50:02;;;;;;;7.70;5.30;;;0.00;99.90;;;;;;4996621;28;20188;-78
2022/03/07 03:52:28;;;;;;;6.57;4.90;;;-0.10;99.90;;;;;;4995251;28;20214;-78
2022/03/07 03:54:55;;;;;;;5.47;4.97;;;-0.30;99.90;;;;;;5015798;28;20196;-77
2022/03/07 03:57:21;;;;;;;7.53;5.83;;;-0.40;99.90;;;;;;5007298;28;20183;-78
2022/03/07 03:59:47;;;;;;;10.10;7.40;;;-0.50;99.90;;;;;;5005011;28;20208;-77
2022/03/07 04:02:13;;;;;;;9.10;6.93;;;-0.60;99.90;;;;;;5018568;28;20207;-78
2022/03/07 04:04:38;;;;;;;9.47;6.50;;;-0.70;99.90;;;;;;5001851;28;20662;-80
2022/03/07 04:07:04;;;;;;;8.87;6.40;;;-0.80;99.90;;;;;;5001691;28;20191;-77
2022/03/07 04:09:29;;;;;;;10.27;6.83;;;-1.00;99.90;;;;;;5003700;28;20213;-81
2022/03/07 04:11:55;;;;;;;9.80;7.40;;;-1.10;99.90;;;;;;5000203;28;20642;-76
2022/03/07 04:14:21;;;;;;;10.90;6.87;;;-1.20;99.90;;;;;;5014370;28;20184;-77
2022/03/07 04:16:47;;;;;;;9.80;7.30;;;-1.30;99.90;;;;;;4999820;28;20670;-76
2022/03/07 04:19:13;;;;;;;12.73;6.93;;;-1.40;99.90;;;;;;5014705;28;20265;-77
2022/03/07 04:21:39;;;;;;;9.40;6.47;;;-1.50;99.90;;;;;;5014547;28;20767;-78
2022/03/07 04:24:06;;;;;;;7.43;5.90;;;-1.60;99.90;;;;;;4998992;28;20203;-78
2022/03/07 04:26:32;;;;;;;8.43;6.30;;;-1.60;99.90;;;;;;5013477;28;20188;-78
2022/03/07 04:29:00;;;;;;;8.83;6.10;;;-1.70;99.90;;;;;;5013984;28;20184;-78
2022/03/07 04:31:26;;;;;;;7.80;6.07;;;-1.70;99.90;;;;;;5010429;28;20260;-79
2022/03/07 04:33:51;;;;;;;8.13;6.33;;;-1.70;99.90;;;;;;5011579;28;20200;-78
2022/03/07 04:36:19;;;;;;;8.63;5.97;;;-1.80;99.90;;;;;;4999415;28;21473;-79
2022/03/07 04:38:44;;;;;;;8.83;6.43;;;-1.80;99.90;;;;;;5000093;28;20184;-80
2022/03/07 04:41:10;;;;;;;10.67;6.97;;;-1.80;99.90;;;;;;4998702;28;20219;-78
2022/03/07 04:43:36;;;;;;;10.67;7.63;;;-1.80;99.90;;;;;;5001226;28;20211;-78
2022/03/07 04:46:02;;;;;;;8.23;6.50;;;-1.70;99.90;;;;;;5013285;28;20343;-80
2022/03/07 04:48:27;;;;;;;9.80;7.03;;;-1.70;99.90;;;;;;5012996;28;20180;-80
2022/03/07 04:50:53;;;;;;;11.07;7.00;;;-1.80;99.90;;;;;;4999942;28;20214;-80
2022/03/07 04:53:18;;;;;;;9.67;6.60;;;-1.80;99.90;;;;;;4998775;28;20207;-77
2022/03/07 04:55:44;;;;;;;8.07;6.33;;;-1.90;99.90;;;;;;4999115;28;20194;-77
2022/03/07 04:58:10;;;;;;;7.57;5.83;;;-1.90;99.90;;;;;;5013199;28;20305;-79
2022/03/07 05:00:35;;;;;;;7.50;6.40;;;-1.90;99.90;;;;;;4999004;28;20715;-77
2022/03/07 05:03:01;;;;;;;8.33;7.03;;;-1.90;99.90;;;;;;4995374;28;20658;-79
2022/03/07 05:05:27;;;;;;;9.43;7.20;;;-1.80;99.90;;;;;;5015328;28;20548;-76
2022/03/07 05:07:53;;;;;;;11.27;7.60;;;-1.80;99.90;;;;;;5001239;28;20192;-80
2022/03/07 05:10:19;;;;;;;11.83;7.80;;;-1.90;99.90;;;;;;5014146;28;20196;-77
2022/03/07 05:12:45;;;;;;;8.73;7.00;;;-1.90;99.90;;;;;;5014178;28;20222;-80
2022/03/07 05:15:11;;;;;;;8.63;6.67;;;-1.90;99.90;;;;;;5014264;28;20275;-81
2022/03/07 05:17:45;;;;;;;9.70;7.17;;;-1.90;99.90;;;;;;5015678;28;20258;-78
2022/03/07 05:20:12;;;;;;;10.27;7.27;;;-1.90;99.90;;;;;;4999334;28;20592;-81
2022/03/07 05:22:42;;;;;;;7.07;6.27;;;-1.90;99.90;;;;;;5000371;28;20311;-76
2022/03/07 05:25:09;;;;;;;7.20;6.10;;;-1.80;99.90;;;;;;4997547;28;20199;-78
2022/03/07 05:27:35;;;;;;;7.23;5.70;;;-1.80;99.90;;;;;;4996656;28;20184;-81
2022/03/07 05:30:01;;;;;;;7.13;6.20;;;-1.80;99.90;;;;;;4999558;28;20199;-80
2022/03/07 05:32:26;;;;;;;7.07;6.17;;;-1.80;99.90;;;;;;4998715;28;20219;-77
2022/03/07 05:34:52;;;;;;;6.20;5.60;;;-1.80;99.90;;;;;;5000511;28;20203;-78
2022/03/07 05:37:17;;;;;;;7.23;5.87;;;-1.90;99.90;;;;;;4999835;28;20221;-79
2022/03/07 05:39:43;;;;;;;7.80;5.87;;;-1.90;99.90;;;;;;5017163;28;20207;-78
2022/03/07 05:42:09;;;;;;;8.13;6.00;;;-2.00;99.90;;;;;;5010965;28;20299;-78
2022/03/07 05:44:34;;;;;;;7.50;5.80;;;-2.00;99.90;;;;;;4992188;28;20188;-81
2022/03/07 05:47:00;;;;;;;8.87;5.83;;;-2.10;99.90;;;;;;4994414;28;20180;-79
2022/03/07 05:49:25;;;;;;;6.93;5.73;;;-2.10;99.90;;;;;;5000070;28;20681;-79
2022/03/07 05:51:51;;;;;;;8.80;6.23;;;-2.10;99.90;;;;;;5017260;28;20215;-77
2022/03/07 05:54:17;;;;;;;7.63;6.13;;;-2.10;99.90;;;;;;5017878;28;20675;-79
2022/03/07 05:56:42;;;;;;;8.53;6.63;;;-2.10;99.90;;;;;;5018136;28;20187;-78
2022/03/07 05:59:08;;;;;;;7.93;6.13;;;-2.20;99.90;;;;;;5002779;28;20667;-80
2022/03/07 06:01:34;;;;;;;11.57;7.07;;;-2.20;99.90;;;;;;5018050;28;20698;-78
2022/03/07 06:03:59;;;;;;;9.43;6.93;;;-2.20;99.90;;;;;;5004292;28;20184;-80
2022/03/07 06:06:25;;;;;;;8.97;6.70;;;-2.20;99.90;;;;;;5003226;28;20175;-77
2022/03/07 06:08:51;;;;;;;11.57;7.40;;;-2.20;99.90;;;;;;5004158;28;20642;-79
2022/03/07 06:11:16;;;;;;;10.23;7.20;;;-2.20;99.90;;;;;;4998367;28;20216;-81
2022/03/07 06:13:42;;;;;;;7.80;5.93;;;-2.20;99.90;;;;;;5003594;28;20204;-79
2022/03/07 06:16:08;;;;;;;8.43;6.80;;;-2.20;99.90;;;;;;5001594;28;20269;-75
2022/03/07 06:18:34;;;;;;;9.57;6.53;;;-2.20;99.90;;;;;;4999939;28;20192;-77
2022/03/07 06:20:59;;;;;;;8.93;7.00;;;-2.20;99.90;;;;;;5004785;28;20222;-78
2022/03/07 06:23:25;;;;;;;7.77;6.17;;;-2.10;99.90;;;;;;4998235;28;20470;-76
2022/03/07 06:25:51;;;;;;;8.73;6.83;;;-2.00;99.90;;;;;;5018665;28;20183;-78
2022/03/07 06:28:16;;;;;;;9.50;6.70;;;-2.00;99.90;;;;;;4999992;28;20196;-77
2022/03/07 06:30:46;;;;;;;8.30;6.90;;;-1.90;99.90;;;;;;5003471;28;20219;-78
2022/03/07 06:33:13;;;;;;;7.63;6.50;;;-1.90;99.90;;;;;;5002584;28;20722;-80
2022/03/07 06:35:38;;;;;;;10.53;6.83;;;-1.90;99.90;;;;;;5001461;28;20190;-78
2022/03/07 06:38:04;;;;;;;7.67;6.43;;;-1.90;99.90;;;;;;4999699;28;20188;-76
2022/03/07 06:40:30;;;;;;;9.43;6.77;;;-1.90;99.90;;;;;;5002495;28;20724;-77
2022/03/07 06:42:55;;;;;;;10.17;6.73;;;-1.90;99.90;;;;;;5004852;28;20267;-78
2022/03/07 06:45:21;;;;;;;9.83;5.90;;;-1.90;99.90;;;;;;5002577;28;20235;-78
2022/03/07 06:47:47;;;;;;;8.00;6.50;;;-1.80;99.90;;;;;;5001858;28;20176;-77
2022/03/07 06:50:14;;;;;;;7.13;6.33;;;-1.70;99.90;;;;;;5008457;28;20185;-79
2022/03/07 06:52:39;;;;;;;7.00;6.20;;;-1.70;99.90;;;;;;5018505;28;20204;-78
2022/03/07 06:55:05;;;;;;;9.97;6.53;;;-1.70;99.90;;;;;;5017018;28;20187;-79
2022/03/07 06:57:31;;;;;;;8.33;6.03;;;-1.60;99.90;;;;;;4998390;28;20673;-78
2022/03/07 06:59:57;;;;;;;7.53;6.13;;;-1.50;99.90;;;;;;5001690;28;20215;-79
2022/03/07 07:02:22;;;;;;;8.10;6.63;;;-1.50;99.90;;;;;;5017010;28;20204;-77
2022/03/07 07:04:48;;;;;;;9.10;6.50;;;-1.40;99.90;;;;;;5001979;28;20195;-77
2022/03/07 07:07:15;;;;;;;8.17;6.53;;;-1.40;99.90;;;;;;5016637;28;20826;-79
2022/03/07 07:09:41;;;;;;;8.37;6.47;;;-1.30;99.90;;;;;;5000794;28;20313;-76
2022/03/07 07:12:08;;;;;;;7.63;6.53;;;-1.20;99.90;;;;;;5016545;28;20211;-79
2022/03/07 07:14:34;;;;;;;8.10;6.30;;;-1.10;99.90;;;;;;4999715;28;20180;-78
2022/03/07 07:16:59;;;;;;;7.37;6.57;;;-1.00;99.90;;;;;;5015059;28;20579;-79
2022/03/07 07:19:25;;;;;;;8.13;6.83;;;-0.80;99.90;;;;;;5016267;28;20199;-77
2022/03/07 07:21:51;;;;;;;9.17;7.60;;;-0.70;99.90;;;;;;5001968;28;20248;-76
2022/03/07 07:24:16;;;;;;;11.00;7.27;;;-0.70;99.90;;;;;;5001580;28;20255;-79
2022/03/07 07:26:42;;;;;;;8.40;7.27;;;-0.60;99.90;;;;;;5015526;28;20196;-78
2022/03/07 07:29:08;;;;;;;11.33;8.10;;;-0.40;99.90;;;;;;5014965;28;20180;-79
2022/03/07 07:31:33;;;;;;;9.90;7.83;;;-0.30;99.90;;;;;;4999464;28;20621;-77
2022/03/07 07:33:59;;;;;;;11.00;8.43;;;-0.20;99.90;;;;;;4999648;28;20183;-79
2022/03/07 07:36:24;;;;;;;9.77;7.30;;;-0.10;99.90;;;;;;5001399;28;20271;-79
2022/03/07 07:38:50;;;;;;;8.57;6.63;;;0.00;99.90;;;;;;5014636;28;20207;-78
2022/03/07 07:41:15;;;;;;;8.97;7.10;;;0.10;99.90;;;;;;5000128;28;20286;-78
2022/03/07 07:43:41;;;;;;;9.33;6.63;;;0.20;99.90;;;;;;5001361;28;20184;-77
2022/03/07 07:46:07;;;;;;;7.87;6.60;;;0.30;99.90;;;;;;4998855;28;20639;-77
2022/03/07 07:48:32;;;;;;;8.37;6.77;;;0.50;99.90;;;;;;5002363;28;20188;-78
2022/03/07 07:50:58;;;;;;;8.37;6.80;;;0.60;99.90;;;;;;4990326;28;20208;-78
2022/03/07 07:53:24;;;;;;;8.80;6.43;;;0.70;99.90;;;;;;4994547;28;20184;-78
2022/03/07 07:55:49;;;;;;;8.20;6.17;;;0.80;99.90;;;;;;4994063;28;20282;-77
2022/03/07 07:58:15;;;;;;;9.73;6.10;;;0.90;99.90;;;;;;5001352;28;20235;-77
2022/03/07 08:00:40;;;;;;;7.07;6.30;;;1.00;99.90;;;;;;4987421;28;20212;-79
2022/03/07 08:03:07;;;;;;;9.67;6.13;;;1.00;99.90;;;;;;5007993;28;20195;-76
2022/03/07 08:05:33;;;;;;;9.93;6.40;;;1.20;99.90;;;;;;4993417;28;20207;-78
2022/03/07 08:07:59;;;;;;;6.27;5.67;;;1.30;99.90;;;;;;4992714;28;20187;-76
2022/03/07 08:10:24;;;;;;;8.17;5.53;;;1.40;99.90;;;;;;4990522;28;20267;-80
2022/03/07 08:12:50;;;;;;;7.07;6.17;;;1.60;99.90;;;;;;5008062;28;20188;-80
2022/03/07 08:15:16;;;;;;;7.83;5.87;;;1.70;99.90;;;;;;5010824;28;20193;-78
2022/03/07 08:17:46;;;;;;;7.43;5.80;;;1.90;99.90;;;;;;4989858;28;20191;-78
2022/03/07 08:20:12;;;;;;;6.57;5.87;;;1.90;99.90;;;;;;4998026;28;20212;-76
2022/03/07 08:22:38;;;;;;;7.13;5.70;;;2.10;99.90;;;;;;4991394;28;20235;-76
2022/03/07 08:25:04;;;;;;;6.63;5.03;;;2.10;99.90;;;;;;4992706;28;20616;-78
2022/03/07 08:27:30;;;;;;;7.47;5.20;;;2.30;99.90;;;;;;4988542;28;20187;-76
2022/03/07 08:29:56;;;;;;;7.03;5.67;;;2.30;99.90;;;;;;4994348;28;20194;-79
2022/03/07 08:32:21;;;;;;;6.30;5.27;;;2.50;99.90;;;;;;4986051;28;20200;-79
2022/03/07 08:34:47;;;;;;;7.40;5.07;;;2.50;99.90;;;;;;5001294;28;20188;-79
2022/03/07 08:37:12;;;;;;;6.13;5.37;;;2.70;99.90;;;;;;5010935;28;20195;-78
2022/03/07 08:39:38;;;;;;;5.70;5.03;;;2.80;99.90;;;;;;4991789;28;20686;-79
2022/03/07 08:42:05;;;;;;;5.87;5.17;;;2.90;99.90;;;;;;5002140;28;20296;-78
2022/03/07 08:44:30;;;;;;;6.07;5.40;;;3.00;99.90;;;;;;4986366;28;20538;-77
2022/03/07 08:46:56;;;;;;;6.63;5.67;;;3.00;99.90;;;;;;5008671;28;20678;-79
2022/03/07 08:49:21;;;;;;;8.37;6.00;;;3.20;99.90;;;;;;5007240;28;20218;-77
2022/03/07 08:51:47;;;;;;;7.13;5.57;;;3.30;99.90;;;;;;5005418;28;20216;-79
2022/03/07 08:54:14;;;;;;;6.33;5.17;;;3.40;99.90;;;;;;5003644;28;20199;-79
2022/03/07 08:56:40;;;;;;;7.50;6.00;;;3.50;99.90;;;;;;4988400;28;20191;-78
2022/03/07 08:59:05;;;;;;;8.63;5.67;;;3.60;99.90;;;;;;5015298;28;20286;-75
2022/03/07 09:01:31;;;;;;;7.37;6.10;;;3.60;99.90;;;;;;4992681;28;20235;-76
2022/03/07 09:03:57;;;;;;;7.43;5.20;;;3.80;99.90;;;;;;5013586;28;20194;-77
2022/03/07 09:06:23;;;;;;;7.17;5.53;;;3.90;99.90;;;;;;4988801;28;20192;-78
2022/03/07 09:08:48;;;;;;;8.50;5.17;;;4.10;99.90;;;;;;4986185;28;20176;-77
2022/03/07 09:11:14;;;;;;;8.47;5.50;;;4.20;99.90;;;;;;5006354;28;20207;-76
2022/03/07 09:13:39;;;;;;;7.40;5.73;;;4.30;99.90;;;;;;5004990;28;20192;-77
2022/03/07 09:16:05;;;;;;;5.30;4.77;;;4.30;99.90;;;;;;4995778;28;20203;-76
2022/03/07 09:18:31;;;;;;;7.77;5.60;;;4.30;99.90;;;;;;5011110;28;20200;-75
2022/03/07 09:20:57;;;;;;;7.97;5.43;;;4.40;99.90;;;;;;5006779;28;20958;-78
2022/03/07 09:23:23;;;;;;;9.00;5.40;;;4.60;99.90;;;;;;4997042;28;20184;-81
2022/03/07 09:25:49;;;;;;;9.73;6.10;;;4.70;99.90;;;;;;5006304;28;20191;-81
2022/03/07 09:28:15;;;;;;;5.40;4.87;;;4.40;99.90;;;;;;4991611;28;20192;-81
2022/03/07 09:30:40;;;;;;;5.73;4.80;;;4.50;99.90;;;;;;5016171;28;20268;-77
2022/03/07 09:33:06;;;;;;;5.83;4.87;;;4.70;99.90;;;;;;5007965;28;20302;-80
2022/03/07 09:35:32;;;;;;;6.37;4.90;;;5.00;99.90;;;;;;4994335;28;20607;-79
2022/03/07 09:37:59;;;;;;;72.53;43.33;;;5.00;99.90;;;;;;5009866;28;20184;-77
2022/03/07 09:40:25;;;;;;;10.07;7.43;;;5.20;99.90;;;;;;4987162;28;20227;-80
2022/03/07 09:42:52;;;;;;;7.27;5.13;;;5.30;99.90;;;;;;4982516;28;20208;-78
2022/03/07 09:45:18;;;;;;;6.20;4.73;;;5.50;99.90;;;;;;4980043;28;20192;-80
2022/03/07 09:47:45;;;;;;;5.43;4.50;;;5.60;99.90;;;;;;4989503;28;20195;-81
2022/03/07 09:50:11;;;;;;;6.53;5.03;;;5.70;99.90;;;;;;4988720;28;20188;-76
2022/03/07 09:52:37;;;;;;;5.63;4.43;;;5.60;99.90;;;;;;4991924;28;20203;-81
2022/03/07 09:55:04;;;;;;;7.60;4.73;;;5.60;99.90;;;;;;5011764;28;20282;-79
2022/03/07 09:57:30;;;;;;;6.10;4.50;;;5.70;99.90;;;;;;5010736;28;20624;-79
2022/03/07 09:59:56;;;;;;;5.70;4.80;;;5.80;99.90;;;;;;5010329;28;20290;-79
2022/03/07 10:02:25;;;;;;;4.87;4.40;;;6.00;99.90;;;;;;4995787;28;20196;-81
2022/03/07 10:04:51;;;;;;;7.87;4.57;;;5.90;99.90;;;;;;4995897;28;20228;-78
2022/03/07 10:07:17;;;;;;;6.03;5.43;;;6.00;99.90;;;;;;4996792;28;20192;-76
2022/03/07 10:09:44;;;;;;;7.10;4.80;;;5.90;99.90;;;;;;4995599;28;20779;-77
2022/03/07 10:12:10;;;;;;;5.83;4.87;;;6.10;99.90;;;;;;5008681;28;20207;-77
2022/03/07 10:14:44;;;;;;;4.57;4.00;;;6.20;99.90;;;;;;5007904;28;20705;-76
2022/03/07 10:17:27;;;;;;;4.40;4.00;;;6.50;99.90;;;;;;5012601;28;20188;-79
2022/03/07 10:20:00;;;;;;;6.83;4.30;;;6.60;99.90;;;;;;4998919;28;20317;-78
2022/03/07 10:22:27;;;;;;;5.10;4.00;;;6.60;99.90;;;;;;5009527;28;20251;-80
2022/03/07 10:25:01;;;;;;;4.93;4.23;;;6.70;99.90;;;;;;4994016;28;20191;-76
2022/03/07 10:27:33;;;;;;;6.13;4.30;;;6.60;99.90;;;;;;4995950;28;20267;-78
2022/03/07 10:30:00;;;;;;;3.80;3.40;;;6.60;99.90;;;;;;5012591;28;20237;-80
2022/03/07 10:32:26;;;;;;;7.50;6.27;;;6.50;99.90;;;;;;4995943;28;20215;-77
2022/03/07 10:34:53;;;;;;;3.80;3.30;;;6.20;99.90;;;;;;4994903;28;20184;-80
2022/03/07 10:37:18;;;;;;;5.03;3.77;;;6.20;99.90;;;;;;5013191;28;20199;-80
2022/03/07 10:39:52;;;;;;;5.13;3.77;;;6.30;99.90;;;;;;4998386;28;20212;-80
2022/03/07 10:42:19;;;;;;;4.77;3.53;;;6.50;99.90;;;;;;4996093;28;20694;-81
2022/03/07 10:44:45;;;;;;;4.77;3.83;;;6.50;99.90;;;;;;4997047;28;20723;-81
2022/03/07 10:47:13;;;;;;;3.87;3.50;;;6.70;99.90;;;;;;5010043;28;20283;-82
2022/03/07 10:49:57;;;;;;;4.30;3.43;;;6.80;99.90;;;;;;4997946;28;20199;-79
2022/03/07 10:52:24;;;;;;;4.70;3.60;;;6.90;99.90;;;;;;4996728;28;20842;-79
2022/03/07 10:54:51;;;;;;;4.23;3.60;;;7.00;99.90;;;;;;4996230;28;20191;-78
2022/03/07 10:57:18;;;;;;;4.40;4.00;;;7.00;99.90;;;;;;5005177;28;20245;-81
2022/03/07 10:59:44;;;;;;;6.10;4.23;;;7.00;99.90;;;;;;5013712;28;20990;-78
2022/03/07 11:02:14;;;;;;;7.17;4.27;;;7.10;99.90;;;;;;4996792;28;20699;-78
2022/03/07 11:04:41;;;;;;;5.17;3.70;;;7.10;99.90;;;;;;5013853;28;20211;-80
2022/03/07 11:07:09;;;;;;;4.50;4.03;;;7.10;99.90;;;;;;5009655;28;20188;-79
2022/03/07 11:09:38;;;;;;;4.10;3.70;;;7.30;99.90;;;;;;4994591;28;20670;-78
2022/03/07 11:12:06;;;;;;;5.20;3.97;;;7.30;99.90;;;;;;4998756;28;20224;-78
2022/03/07 11:14:32;;;;;;;5.53;4.23;;;7.30;99.90;;;;;;5005313;28;20188;-79
2022/03/07 11:16:58;;;;;;;4.23;3.80;;;7.20;99.90;;;;;;4991869;28;20273;-78
2022/03/07 11:19:25;;;;;;;5.83;4.40;;;7.10;99.90;;;;;;4992656;28;20211;-79
2022/03/07 11:21:52;;;;;;;4.73;4.23;;;7.00;99.90;;;;;;4992652;28;20281;-81
2022/03/07 11:24:27;;;;;;;6.10;3.97;;;7.10;99.90;;;;;;5009224;28;20274;-82
2022/03/07 11:26:55;;;;;;;4.07;3.53;;;7.30;99.90;;;;;;4995104;28;20406;-81
2022/03/07 11:29:41;;;;;;;5.30;4.27;;;7.30;99.90;;;;;;4991883;28;20185;-78
2022/03/07 11:32:09;;;;;;;4.17;3.77;;;7.20;99.90;;;;;;4995301;28;20282;-80
2022/03/07 11:34:35;;;;;;;4.70;4.20;;;7.10;99.90;;;;;;5011017;28;20276;-80
2022/03/07 11:37:02;;;;;;;5.00;4.50;;;7.30;99.90;;;;;;4991469;28;20609;-80
2022/03/07 11:39:35;;;;;;;8.20;5.07;;;7.30;99.90;;;;;;4985111;28;20214;-80
2022/03/07 11:42:15;;;;;;;6.07;4.53;;;7.30;99.90;;;;;;4990155;28;20204;-80
2022/03/07 11:44:42;;;;;;;4.97;4.47;;;7.40;99.90;;;;;;4993411;28;20191;-80
2022/03/07 11:47:19;;;;;;;4.27;3.73;;;7.90;99.90;;;;;;4985082;28;20198;-80
2022/03/07 11:49:46;;;;;;;4.80;4.30;;;7.90;99.90;;;;;;5011996;28;20198;-80
2022/03/07 11:52:17;;;;;;;5.50;3.97;;;7.90;99.90;;;;;;5005734;28;20208;-78
2022/03/07 11:54:54;;;;;;;4.60;4.10;;;8.00;99.90;;;;;;4996474;28;20192;-77
2022/03/07 11:57:35;;;;;;;6.47;5.13;;;7.50;99.90;;;;;;4997851;28;20202;-79
2022/03/07 12:00:17;;;;;;;4.53;3.80;;;7.50;99.90;;;;;;4995774;28;20215;-79
2022/03/07 12:02:46;;;;;;;5.73;4.37;;;7.40;99.90;;;;;;5012464;28;20220;-77
2022/03/07 12:05:26;;;;;;;6.03;4.50;;;7.60;99.90;;;;;;5010615;28;20682;-78
2022/03/07 12:08:05;;;;;;;4.70;3.90;;;7.80;99.90;;;;;;4997515;28;20270;-79
2022/03/07 12:10:30;;;;;;;4.80;4.30;;;7.60;99.90;;;;;;4995387;28;20234;-82
2022/03/07 12:13:05;;;;;;;4.37;3.47;;;8.00;99.90;;;;;;5012351;28;20196;-77
2022/03/07 12:15:30;;;;;;;3.87;3.47;;;7.90;99.90;;;;;;4995316;28;20180;-80
2022/03/07 12:17:56;;;;;;;3.60;3.17;;;7.60;99.90;;;;;;5010322;28;20912;-80
2022/03/07 12:20:22;;;;;;;4.83;3.53;;;7.40;99.90;;;;;;5012748;28;20204;-80
2022/03/07 12:22:47;;;;;;;3.87;3.30;;;7.50;99.90;;;;;;4996389;28;20218;-80
2022/03/07 12:25:13;;;;;;;4.30;3.17;;;7.70;99.90;;;;;;4993187;28;20199;-80
2022/03/07 12:27:41;;;;;;;4.40;3.30;;;7.90;99.90;;;;;;4997998;28;20267;-82
2022/03/07 12:30:08;;;;;;;5.67;3.37;;;8.10;99.90;;;;;;4996501;28;20180;-79
2022/03/07 12:32:35;;;;;;;4.10;3.30;;;8.20;99.90;;;;;;4996805;28;20207;-80
2022/03/07 12:35:01;;;;;;;5.27;4.20;;;8.20;99.90;;;;;;4996260;28;20772;-80
2022/03/07 12:37:28;;;;;;;6.07;4.17;;;8.20;99.90;;;;;;4994781;28;20183;-80
2022/03/07 12:40:00;;;;;;;4.77;3.33;;;8.20;99.90;;;;;;4995498;28;20295;-79
2022/03/07 12:42:32;;;;;;;4.23;3.60;;;8.30;99.90;;;;;;4995452;28;20211;-78
2022/03/07 12:45:00;;;;;;;4.10;2.97;;;8.10;99.90;;;;;;5002340;28;20215;-78
2022/03/07 12:47:28;;;;;;;3.40;2.67;;;7.80;99.90;;;;;;4997102;28;20345;-78
2022/03/07 12:49:54;;;;;;;2.90;2.30;;;7.90;99.90;;;;;;4991907;28;20203;-80